Newry, South Carolina
Current Conditions -  °F | °C
As of 3:54 PM on Wednesday 17 Dec 2014 (Local Time) from KCEU Reporting Station
Clear Clear  
Wind Chill: 59°   Ceiling: Unl
Heat Index: 59°   Visibility: 10mi
Dew Point: 34°   Wind: 3mph
Humidity: 39%   Direction: 210°SSW
Pressure: 30.08"   Gusts: NA
Location:  34.72°N, 82.91°W
Report Text: KCEU 172054Z AUTO 21003KT 10SM CLR 15/01 A3008 RMK AO2 SLP183 T01500011 55012
Loading
Personal Weather Stations






























Interactive Weather Map New forecast layout! Learn more

10-Day Weather Forecast

Advertisements
Track Severe Weather on mobile